Upstream stations:
Downstream station:
SHEF ID: AMAT2 Canadian Rv nr Amarillo, TX
STATION TYPE:
Regulating: Stage = 13.00, Flow = 87096
STAGE RIV-FLOW WTR-TEMP CONDUCT BAT-LOAD
ft cfs F umho/cm volt
Ccp-Rev Ccp-Rev Ccp-Rev Ccp-Rev Ccp-Rev
(US/Central)
05/11 00:00 1.00 10 62.96 2 12.65
05/11 01:00 0.95 8 62.96 2 12.65
05/11 02:00 0.91 6 62.92 2 12.65
05/11 03:00 1.03 11 62.91 2 12.65
05/11 04:00 0.98 9 62.85 2 12.65
05/11 05:00 1.00 10 62.82 2 12.65
05/11 06:00 0.99 9 62.76 2 12.65
05/11 07:00 1.02 11 62.71 2 12.65
05/11 08:00 1.06 13 62.64 2 12.73
05/11 09:00 0.93 7 62.56 2 12.89
05/11 10:00 0.87 4 62.49 2 12.97
05/11 11:00 0.96 8 62.46 2 13.05
05/11 12:00 1.18 21 62.47 2 13.05
05/11 13:00 1.00 10 62.60 2 13.05
05/11 14:00 0.93 7 62.83 2 13.05
05/11 15:00 1.12 17 63.18 2 13.05
05/11 16:00 1.31 33 63.59 2 12.97
05/11 17:00 1.22 24 64.02 2 12.81
05/11 18:00 1.17 20 64.45 2 12.81
05/11 19:00 1.05 12 64.85 2 12.81
05/11 20:00 1.13 17 65.17 2 12.73
05/11 21:00 1.01 10 65.43 2 12.73
05/11 22:00 0.98 9 65.62 2 12.73
05/11 23:00 0.98 9 65.77 2 12.73